sensor_id;sensor_type;location;lat;lon;timestamp;P1;durP1;ratioP1;P2;durP2;ratioP2
13799;SDS011;6971;50.028;9.258;2023-04-01T00:02:34;3.60;;;1.63;;
13799;SDS011;6971;50.028;9.258;2023-04-01T00:07:34;5.90;;;1.80;;
13799;SDS011;6971;50.028;9.258;2023-04-01T00:12:35;2.33;;;1.17;;
13799;SDS011;6971;50.028;9.258;2023-04-01T00:17:36;6.70;;;1.37;;
13799;SDS011;6971;50.028;9.258;2023-04-01T00:22:37;5.80;;;1.67;;
13799;SDS011;6971;50.028;9.258;2023-04-01T00:27:38;3.73;;;1.63;;
13799;SDS011;6971;50.028;9.258;2023-04-01T00:32:38;5.33;;;1.57;;
13799;SDS011;6971;50.028;9.258;2023-04-01T00:37:38;2.77;;;1.40;;
13799;SDS011;6971;50.028;9.258;2023-04-01T00:42:41;5.77;;;1.63;;
13799;SDS011;6971;50.028;9.258;2023-04-01T00:47:42;5.63;;;1.20;;
13799;SDS011;6971;50.028;9.258;2023-04-01T00:52:42;6.40;;;1.60;;
13799;SDS011;6971;50.028;9.258;2023-04-01T00:57:43;3.67;;;1.10;;
13799;SDS011;6971;50.028;9.258;2023-04-01T01:02:45;5.47;;;1.30;;
13799;SDS011;6971;50.028;9.258;2023-04-01T01:07:52;3.50;;;1.00;;
13799;SDS011;6971;50.028;9.258;2023-04-01T01:13:21;3.50;;;1.07;;
13799;SDS011;6971;50.028;9.258;2023-04-01T01:40:19;4.10;;;1.23;;
13799;SDS011;6971;50.028;9.258;2023-04-01T01:45:20;6.30;;;1.47;;
13799;SDS011;6971;50.028;9.258;2023-04-01T01:50:23;5.33;;;1.43;;
13799;SDS011;6971;50.028;9.258;2023-04-01T01:55:36;1.33;;;1.00;;
13799;SDS011;6971;50.028;9.258;2023-04-01T02:00:41;6.20;;;1.60;;
13799;SDS011;6971;50.028;9.258;2023-04-01T02:05:47;1.97;;;1.13;;
13799;SDS011;6971;50.028;9.258;2023-04-01T02:11:09;6.00;;;1.50;;
13799;SDS011;6971;50.028;9.258;2023-04-01T02:16:17;4.53;;;1.23;;
13799;SDS011;6971;50.028;9.258;2023-04-01T02:21:23;5.70;;;1.27;;
13799;SDS011;6971;50.028;9.258;2023-04-01T02:26:26;2.93;;;1.17;;
13799;SDS011;6971;50.028;9.258;2023-04-01T02:31:27;7.50;;;1.47;;
13799;SDS011;6971;50.028;9.258;2023-04-01T02:36:28;4.30;;;1.30;;
13799;SDS011;6971;50.028;9.258;2023-04-01T02:41:29;3.67;;;1.30;;
13799;SDS011;6971;50.028;9.258;2023-04-01T02:46:29;4.20;;;1.70;;
13799;SDS011;6971;50.028;9.258;2023-04-01T02:51:30;4.10;;;1.17;;
13799;SDS011;6971;50.028;9.258;2023-04-01T02:56:30;6.07;;;1.30;;
13799;SDS011;6971;50.028;9.258;2023-04-01T03:01:31;3.67;;;1.23;;
13799;SDS011;6971;50.028;9.258;2023-04-01T03:06:31;2.93;;;1.57;;
13799;SDS011;6971;50.028;9.258;2023-04-01T03:11:31;6.83;;;1.50;;
13799;SDS011;6971;50.028;9.258;2023-04-01T03:16:32;6.97;;;1.60;;
13799;SDS011;6971;50.028;9.258;2023-04-01T03:21:33;3.03;;;1.10;;
13799;SDS011;6971;50.028;9.258;2023-04-01T03:26:33;3.07;;;1.30;;
13799;SDS011;6971;50.028;9.258;2023-04-01T03:31:33;6.33;;;1.60;;
13799;SDS011;6971;50.028;9.258;2023-04-01T03:36:34;8.43;;;1.37;;
13799;SDS011;6971;50.028;9.258;2023-04-01T03:41:35;3.20;;;1.10;;
13799;SDS011;6971;50.028;9.258;2023-04-01T03:46:37;4.07;;;1.00;;
13799;SDS011;6971;50.028;9.258;2023-04-01T03:51:38;2.57;;;0.83;;
13799;SDS011;6971;50.028;9.258;2023-04-01T03:56:40;3.33;;;1.00;;
13799;SDS011;6971;50.028;9.258;2023-04-01T04:01:40;1.53;;;0.90;;
13799;SDS011;6971;50.028;9.258;2023-04-01T04:06:41;3.00;;;1.53;;
13799;SDS011;6971;50.028;9.258;2023-04-01T04:11:41;3.43;;;1.20;;
13799;SDS011;6971;50.028;9.258;2023-04-01T04:16:41;5.37;;;1.27;;
13799;SDS011;6971;50.028;9.258;2023-04-01T04:21:42;2.47;;;0.93;;
13799;SDS011;6971;50.028;9.258;2023-04-01T04:26:42;3.40;;;1.13;;
13799;SDS011;6971;50.028;9.258;2023-04-01T04:31:43;3.53;;;1.53;;
13799;SDS011;6971;50.028;9.258;2023-04-01T04:36:43;2.80;;;1.20;;
13799;SDS011;6971;50.028;9.258;2023-04-01T04:41:44;4.03;;;1.30;;
13799;SDS011;6971;50.028;9.258;2023-04-01T04:46:44;5.40;;;1.00;;
13799;SDS011;6971;50.028;9.258;2023-04-01T04:51:44;2.70;;;1.37;;
13799;SDS011;6971;50.028;9.258;2023-04-01T04:56:45;3.67;;;0.90;;
13799;SDS011;6971;50.028;9.258;2023-04-01T05:01:45;5.13;;;1.40;;
13799;SDS011;6971;50.028;9.258;2023-04-01T05:06:46;3.17;;;1.30;;
13799;SDS011;6971;50.028;9.258;2023-04-01T05:11:46;7.20;;;1.60;;
13799;SDS011;6971;50.028;9.258;2023-04-01T05:16:46;2.90;;;1.47;;
13799;SDS011;6971;50.028;9.258;2023-04-01T05:21:47;4.80;;;1.30;;
13799;SDS011;6971;50.028;9.258;2023-04-01T05:26:47;4.83;;;1.30;;
13799;SDS011;6971;50.028;9.258;2023-04-01T05:31:47;5.37;;;1.10;;
13799;SDS011;6971;50.028;9.258;2023-04-01T05:36:48;2.30;;;1.10;;
13799;SDS011;6971;50.028;9.258;2023-04-01T05:41:48;5.27;;;1.20;;
13799;SDS011;6971;50.028;9.258;2023-04-01T05:46:49;2.67;;;1.30;;
13799;SDS011;6971;50.028;9.258;2023-04-01T05:51:49;3.43;;;1.43;;
13799;SDS011;6971;50.028;9.258;2023-04-01T05:56:51;2.53;;;1.00;;
13799;SDS011;6971;50.028;9.258;2023-04-01T06:01:51;3.03;;;1.53;;
13799;SDS011;6971;50.028;9.258;2023-04-01T06:06:52;3.57;;;1.47;;
13799;SDS011;6971;50.028;9.258;2023-04-01T06:17:12;5.20;;;2.30;;
13799;SDS011;6971;50.028;9.258;2023-04-01T06:22:32;2.90;;;1.30;;
13799;SDS011;6971;50.028;9.258;2023-04-01T06:33:06;3.60;;;1.40;;
13799;SDS011;6971;50.028;9.258;2023-04-01T06:49:09;3.20;;;1.97;;
13799;SDS011;6971;50.028;9.258;2023-04-01T06:54:14;4.77;;;1.47;;
13799;SDS011;6971;50.028;9.258;2023-04-01T06:59:19;3.73;;;1.87;;
13799;SDS011;6971;50.028;9.258;2023-04-01T07:09:24;2.38;;;1.23;;
13799;SDS011;6971;50.028;9.258;2023-04-01T07:14:35;4.30;;;1.80;;
13799;SDS011;6971;50.028;9.258;2023-04-01T07:24:56;2.70;;;1.50;;
13799;SDS011;6971;50.028;9.258;2023-04-01T07:30:03;4.50;;;1.63;;
13799;SDS011;6971;50.028;9.258;2023-04-01T07:40:25;3.33;;;1.50;;
13799;SDS011;6971;50.028;9.258;2023-04-01T07:56:25;5.07;;;2.20;;
13799;SDS011;6971;50.028;9.258;2023-04-01T08:01:35;3.23;;;1.47;;
13799;SDS011;6971;50.028;9.258;2023-04-01T08:06:49;1.90;;;1.30;;
13799;SDS011;6971;50.028;9.258;2023-04-01T08:11:55;5.93;;;1.70;;
13799;SDS011;6971;50.028;9.258;2023-04-01T08:17:13;2.17;;;1.70;;
13799;SDS011;6971;50.028;9.258;2023-04-01T08:22:27;2.67;;;1.50;;
13799;SDS011;6971;50.028;9.258;2023-04-01T08:27:38;3.43;;;1.53;;
13799;SDS011;6971;50.028;9.258;2023-04-01T08:32:55;3.20;;;1.60;;
13799;SDS011;6971;50.028;9.258;2023-04-01T08:38:01;5.30;;;1.30;;
13799;SDS011;6971;50.028;9.258;2023-04-01T08:43:14;3.90;;;1.47;;
13799;SDS011;6971;50.028;9.258;2023-04-01T08:59:24;2.97;;;1.50;;
13799;SDS011;6971;50.028;9.258;2023-04-01T09:10:33;3.77;;;1.70;;
13799;SDS011;6971;50.028;9.258;2023-04-01T09:15:49;4.07;;;1.60;;
13799;SDS011;6971;50.028;9.258;2023-04-01T09:26:44;3.90;;;1.67;;
13799;SDS011;6971;50.028;9.258;2023-04-01T09:48:00;2.23;;;1.60;;
13799;SDS011;6971;50.028;9.258;2023-04-01T09:53:56;4.23;;;2.27;;
13799;SDS011;6971;50.028;9.258;2023-04-01T10:35:50;1.97;;;1.73;;
13799;SDS011;6971;50.028;9.258;2023-04-01T10:51:46;1.73;;;1.37;;
13799;SDS011;6971;50.028;9.258;2023-04-01T10:57:23;1.67;;;1.33;;
13799;SDS011;6971;50.028;9.258;2023-04-01T11:03:27;2.37;;;1.50;;
13799;SDS011;6971;50.028;9.258;2023-04-01T11:09:03;2.07;;;1.57;;
13799;SDS011;6971;50.028;9.258;2023-04-01T11:20:02;4.30;;;1.20;;
13799;SDS011;6971;50.028;9.258;2023-04-01T11:46:12;1.37;;;1.23;;
13799;SDS011;6971;50.028;9.258;2023-04-01T12:18:43;1.73;;;1.63;;
13799;SDS011;6971;50.028;9.258;2023-04-01T12:55:59;2.37;;;1.30;;
13799;SDS011;6971;50.028;9.258;2023-04-01T13:11:43;1.50;;;1.40;;
13799;SDS011;6971;50.028;9.258;2023-04-01T13:22:27;1.90;;;1.80;;
13799;SDS011;6971;50.028;9.258;2023-04-01T13:27:39;2.50;;;2.30;;
13799;SDS011;6971;50.028;9.258;2023-04-01T13:32:45;2.47;;;2.03;;
13799;SDS011;6971;50.028;9.258;2023-04-01T13:43:25;2.27;;;2.07;;
13799;SDS011;6971;50.028;9.258;2023-04-01T13:59:46;3.70;;;3.27;;
13799;SDS011;6971;50.028;9.258;2023-04-01T14:10:20;3.40;;;2.73;;
13799;SDS011;6971;50.028;9.258;2023-04-01T14:58:11;1.80;;;1.70;;
13799;SDS011;6971;50.028;9.258;2023-04-01T15:08:27;2.10;;;1.90;;
13799;SDS011;6971;50.028;9.258;2023-04-01T15:13:39;2.27;;;1.80;;
13799;SDS011;6971;50.028;9.258;2023-04-01T15:19:07;1.60;;;1.50;;
13799;SDS011;6971;50.028;9.258;2023-04-01T15:24:20;2.00;;;1.90;;
13799;SDS011;6971;50.028;9.258;2023-04-01T15:29:39;2.47;;;2.10;;
13799;SDS011;6971;50.028;9.258;2023-04-01T15:34:51;2.30;;;2.10;;
13799;SDS011;6971;50.028;9.258;2023-04-01T15:55:46;1.90;;;1.60;;
13799;SDS011;6971;50.028;9.258;2023-04-01T16:00:53;2.33;;;2.13;;
13799;SDS011;6971;50.028;9.258;2023-04-01T16:11:32;2.03;;;1.70;;
13799;SDS011;6971;50.028;9.258;2023-04-01T16:22:02;1.97;;;1.80;;
13799;SDS011;6971;50.028;9.258;2023-04-01T16:32:50;2.60;;;2.17;;
13799;SDS011;6971;50.028;9.258;2023-04-01T16:38:22;2.87;;;2.40;;
13799;SDS011;6971;50.028;9.258;2023-04-01T16:43:43;2.80;;;2.27;;
13799;SDS011;6971;50.028;9.258;2023-04-01T16:49:03;3.27;;;2.50;;
13799;SDS011;6971;50.028;9.258;2023-04-01T16:54:05;2.67;;;2.47;;
13799;SDS011;6971;50.028;9.258;2023-04-01T16:59:18;2.57;;;2.37;;
13799;SDS011;6971;50.028;9.258;2023-04-01T17:20:14;2.80;;;2.60;;
13799;SDS011;6971;50.028;9.258;2023-04-01T17:25:38;4.67;;;2.93;;
13799;SDS011;6971;50.028;9.258;2023-04-01T17:30:52;3.97;;;3.00;;
13799;SDS011;6971;50.028;9.258;2023-04-01T17:36:42;5.50;;;4.63;;
13799;SDS011;6971;50.028;9.258;2023-04-01T17:41:53;5.13;;;3.40;;
13799;SDS011;6971;50.028;9.258;2023-04-01T17:52:55;3.37;;;2.43;;
13799;SDS011;6971;50.028;9.258;2023-04-01T18:09:00;2.97;;;2.37;;
13799;SDS011;6971;50.028;9.258;2023-04-01T18:14:41;2.47;;;2.10;;
13799;SDS011;6971;50.028;9.258;2023-04-01T18:19:51;2.47;;;1.60;;
13799;SDS011;6971;50.028;9.258;2023-04-01T18:25:32;4.37;;;1.90;;
13799;SDS011;6971;50.028;9.258;2023-04-01T18:30:37;2.53;;;2.23;;
13799;SDS011;6971;50.028;9.258;2023-04-01T18:46:03;8.40;;;5.20;;
13799;SDS011;6971;50.028;9.258;2023-04-01T18:56:30;11.07;;;7.27;;
13799;SDS011;6971;50.028;9.258;2023-04-01T19:01:39;9.67;;;7.43;;
13799;SDS011;6971;50.028;9.258;2023-04-01T19:06:47;5.67;;;5.17;;
13799;SDS011;6971;50.028;9.258;2023-04-01T19:11:55;5.13;;;2.87;;
13799;SDS011;6971;50.028;9.258;2023-04-01T19:17:14;7.27;;;5.57;;
13799;SDS011;6971;50.028;9.258;2023-04-01T19:27:53;7.77;;;6.20;;
13799;SDS011;6971;50.028;9.258;2023-04-01T19:43:44;7.87;;;6.23;;
13799;SDS011;6971;50.028;9.258;2023-04-01T19:49:23;3.37;;;3.00;;
13799;SDS011;6971;50.028;9.258;2023-04-01T20:05:25;3.87;;;2.73;;
13799;SDS011;6971;50.028;9.258;2023-04-01T20:10:45;3.37;;;3.03;;
13799;SDS011;6971;50.028;9.258;2023-04-01T20:16:00;4.00;;;3.20;;
13799;SDS011;6971;50.028;9.258;2023-04-01T20:26:44;4.37;;;3.73;;
13799;SDS011;6971;50.028;9.258;2023-04-01T20:31:55;3.80;;;2.73;;
13799;SDS011;6971;50.028;9.258;2023-04-01T21:04:08;2.53;;;2.00;;
13799;SDS011;6971;50.028;9.258;2023-04-01T21:09:24;3.10;;;2.20;;
13799;SDS011;6971;50.028;9.258;2023-04-01T21:24:58;3.00;;;2.70;;
13799;SDS011;6971;50.028;9.258;2023-04-01T21:30:32;3.07;;;2.30;;
13799;SDS011;6971;50.028;9.258;2023-04-01T21:41:18;4.47;;;2.57;;
13799;SDS011;6971;50.028;9.258;2023-04-01T21:46:36;4.97;;;2.90;;
13799;SDS011;6971;50.028;9.258;2023-04-01T22:13:50;3.43;;;2.80;;
13799;SDS011;6971;50.028;9.258;2023-04-01T22:24:15;6.60;;;2.47;;
13799;SDS011;6971;50.028;9.258;2023-04-01T22:29:27;5.87;;;4.33;;
13799;SDS011;6971;50.028;9.258;2023-04-01T22:50:15;6.17;;;2.67;;
13799;SDS011;6971;50.028;9.258;2023-04-01T22:55:24;3.40;;;2.50;;
13799;SDS011;6971;50.028;9.258;2023-04-01T23:00:32;4.97;;;3.50;;
13799;SDS011;6971;50.028;9.258;2023-04-01T23:05:40;5.30;;;3.67;;
13799;SDS011;6971;50.028;9.258;2023-04-01T23:10:50;5.70;;;4.13;;
13799;SDS011;6971;50.028;9.258;2023-04-01T23:15:54;8.97;;;6.57;;
13799;SDS011;6971;50.028;9.258;2023-04-01T23:20:58;5.20;;;4.67;;
13799;SDS011;6971;50.028;9.258;2023-04-01T23:26:52;5.27;;;2.70;;
13799;SDS011;6971;50.028;9.258;2023-04-01T23:31:48;3.13;;;2.80;;
13799;SDS011;6971;50.028;9.258;2023-04-01T23:36:58;3.67;;;3.37;;
13799;SDS011;6971;50.028;9.258;2023-04-01T23:42:05;3.90;;;2.70;;
13799;SDS011;6971;50.028;9.258;2023-04-01T23:47:17;2.90;;;2.70;;
13799;SDS011;6971;50.028;9.258;2023-04-01T23:52:22;4.57;;;3.20;;
13799;SDS011;6971;50.028;9.258;2023-04-01T23:57:28;3.63;;;2.70;;
